createdAt,value
2018-07-31T00:00:44.653Z,5.60
2018-07-31T00:03:13.156Z,5.90
2018-07-31T00:05:41.588Z,6.12
2018-07-31T00:08:10.128Z,7.83
2018-07-31T00:10:38.530Z,5.05
2018-07-31T00:13:06.932Z,5.15
2018-07-31T00:15:35.330Z,6.37
2018-07-31T00:18:03.802Z,5.40
2018-07-31T00:20:32.264Z,5.17
2018-07-31T00:23:00.664Z,4.55
2018-07-31T00:25:29.086Z,4.65
2018-07-31T00:27:57.476Z,5.70
2018-07-31T00:30:25.891Z,6.30
2018-07-31T00:32:54.316Z,4.97
2018-07-31T00:35:22.710Z,4.95
2018-07-31T00:37:51.166Z,4.95
2018-07-31T00:40:19.584Z,6.43
2018-07-31T00:42:47.693Z,5.47
2018-07-31T00:45:16.405Z,4.92
2018-07-31T00:47:44.833Z,4.70
2018-07-31T00:50:13.229Z,4.57
2018-07-31T00:52:41.650Z,4.97
2018-07-31T00:55:10.081Z,5.07
2018-07-31T00:57:38.475Z,7.47
2018-07-31T01:00:06.879Z,4.80
2018-07-31T01:02:35.317Z,5.10
2018-07-31T01:05:03.811Z,5.37
2018-07-31T01:07:32.276Z,6.33
2018-07-31T01:10:00.810Z,5.63
2018-07-31T01:12:29.259Z,5.13
2018-07-31T01:14:57.817Z,5.05
2018-07-31T01:17:26.323Z,5.55
2018-07-31T01:19:54.761Z,4.90
2018-07-31T01:22:23.259Z,7.70
2018-07-31T01:24:52.153Z,5.97
2018-07-31T01:27:20.635Z,4.83
2018-07-31T01:29:49.115Z,5.57
2018-07-31T01:32:17.623Z,6.83
2018-07-31T01:34:46.079Z,7.87
2018-07-31T01:37:14.598Z,4.93
2018-07-31T01:39:43.009Z,6.50
2018-07-31T01:42:11.154Z,6.57
2018-07-31T01:44:39.599Z,5.27
2018-07-31T01:47:08.087Z,5.47
2018-07-31T01:49:36.656Z,5.40
2018-07-31T01:52:05.142Z,5.67
2018-07-31T01:54:33.571Z,5.53
2018-07-31T01:57:02.053Z,6.47
2018-07-31T01:59:30.254Z,7.03
2018-07-31T02:01:58.665Z,6.53
2018-07-31T02:04:27.344Z,5.60
2018-07-31T02:06:55.779Z,5.70
2018-07-31T02:09:24.295Z,6.67
2018-07-31T02:11:52.752Z,5.63
2018-07-31T02:14:20.832Z,6.37
2018-07-31T02:16:49.286Z,5.50
2018-07-31T02:19:17.836Z,7.00
2018-07-31T02:21:46.271Z,4.97
2018-07-31T02:24:14.816Z,6.03
2018-07-31T02:26:43.247Z,6.90
2018-07-31T02:29:11.706Z,5.57
2018-07-31T02:31:40.154Z,5.53
2018-07-31T02:34:08.606Z,5.90
2018-07-31T02:36:37.024Z,5.43
2018-07-31T02:39:07.711Z,5.90
2018-07-31T02:41:36.100Z,5.47
2018-07-31T02:44:04.504Z,5.47
2018-07-31T02:46:32.992Z,6.87
2018-07-31T02:49:01.446Z,6.67
2018-07-31T02:51:29.893Z,6.37
2018-07-31T02:53:58.321Z,6.40
2018-07-31T02:56:26.757Z,7.23
2018-07-31T02:58:55.178Z,7.33
2018-07-31T03:01:23.747Z,7.17
2018-07-31T03:03:52.467Z,7.70
2018-07-31T03:06:20.578Z,6.13
2018-07-31T03:08:49.066Z,6.53
2018-07-31T03:11:17.535Z,7.97
2018-07-31T03:13:45.937Z,6.73
2018-07-31T03:16:14.450Z,8.37
2018-07-31T03:18:42.510Z,7.10
2018-07-31T03:21:10.987Z,5.80
2018-07-31T03:23:39.406Z,6.00
2018-07-31T03:26:07.900Z,6.40
2018-07-31T03:28:36.335Z,7.43
2018-07-31T03:31:04.423Z,7.13
2018-07-31T03:33:32.933Z,6.83
2018-07-31T03:36:01.454Z,7.03
2018-07-31T03:38:30.001Z,6.53
2018-07-31T03:40:58.478Z,6.93
2018-07-31T03:43:26.984Z,6.50
2018-07-31T03:45:55.461Z,6.60
2018-07-31T03:48:23.962Z,5.97
2018-07-31T03:50:52.802Z,9.07
2018-07-31T03:53:21.810Z,5.80
2018-07-31T03:55:50.205Z,7.63
2018-07-31T03:58:18.786Z,6.70
2018-07-31T04:00:47.240Z,6.33
2018-07-31T04:03:15.713Z,6.67
2018-07-31T04:05:44.163Z,6.37
2018-07-31T04:08:12.602Z,7.70
2018-07-31T04:10:41.052Z,6.13
2018-07-31T04:13:09.517Z,6.87
2018-07-31T04:15:37.636Z,6.33
2018-07-31T04:18:06.117Z,6.60
2018-07-31T04:20:34.517Z,8.57
2018-07-31T04:23:02.908Z,6.20
2018-07-31T04:25:31.336Z,7.53
2018-07-31T04:28:09.354Z,8.60
2018-07-31T04:30:37.885Z,8.33
2018-07-31T04:33:06.274Z,9.37
2018-07-31T04:35:34.759Z,8.20
2018-07-31T04:38:03.300Z,7.47
2018-07-31T04:40:31.765Z,7.07
2018-07-31T04:43:00.240Z,8.47
2018-07-31T04:45:28.770Z,6.80
2018-07-31T04:47:57.242Z,6.83
2018-07-31T04:50:25.421Z,7.47
2018-07-31T04:52:53.865Z,8.00
2018-07-31T04:55:22.840Z,7.50
2018-07-31T04:57:51.557Z,6.97
2018-07-31T05:00:20.325Z,7.03
2018-07-31T05:02:49.160Z,7.37
2018-07-31T05:05:18.108Z,7.47
2018-07-31T05:07:47.281Z,9.57
2018-07-31T05:10:15.935Z,7.53
2018-07-31T05:12:44.603Z,6.90
2018-07-31T05:15:12.963Z,7.60
2018-07-31T05:17:41.553Z,6.50
2018-07-31T05:20:10.967Z,7.77
2018-07-31T05:22:40.498Z,8.07
2018-07-31T05:25:09.312Z,8.23
2018-07-31T05:27:37.911Z,8.30
2018-07-31T05:30:08.581Z,8.53
2018-07-31T05:32:37.668Z,12.03
2018-07-31T05:35:06.783Z,8.33
2018-07-31T05:37:35.769Z,8.63
2018-07-31T05:40:04.905Z,8.77
2018-07-31T05:42:33.446Z,7.83
2018-07-31T05:45:02.225Z,8.30
2018-07-31T05:47:30.843Z,7.93
2018-07-31T05:50:00.377Z,7.13
2018-07-31T05:52:28.861Z,9.23
2018-07-31T05:54:57.366Z,8.05
2018-07-31T05:57:25.913Z,8.23
2018-07-31T05:59:54.354Z,7.50
2018-07-31T06:02:22.925Z,10.30
2018-07-31T06:04:51.393Z,11.08
2018-07-31T06:07:19.896Z,9.10
2018-07-31T06:09:49.344Z,9.25
2018-07-31T06:12:17.888Z,12.95
2018-07-31T06:14:46.377Z,11.30
2018-07-31T06:17:14.934Z,9.53
2018-07-31T06:19:43.468Z,11.03
2018-07-31T06:22:12.003Z,13.50
2018-07-31T06:24:40.722Z,9.28
2018-07-31T06:27:09.307Z,15.08
2018-07-31T06:29:37.785Z,12.47
2018-07-31T06:32:06.280Z,14.55
2018-07-31T06:34:34.853Z,15.38
2018-07-31T06:37:03.440Z,12.18
2018-07-31T06:39:31.968Z,16.57
2018-07-31T06:42:00.582Z,7.47
2018-07-31T06:44:29.295Z,15.13
2018-07-31T06:46:57.866Z,13.53
2018-07-31T06:49:26.382Z,10.20
2018-07-31T06:51:54.648Z,11.22
2018-07-31T06:54:23.158Z,11.35
2018-07-31T06:56:51.662Z,12.50
2018-07-31T06:59:20.190Z,11.95
2018-07-31T07:01:48.838Z,9.55
2018-07-31T07:04:17.463Z,12.07
2018-07-31T07:06:46.030Z,7.42
2018-07-31T07:09:14.531Z,9.08
2018-07-31T07:11:43.060Z,7.70
2018-07-31T07:14:11.546Z,10.85
2018-07-31T07:16:40.050Z,13.30
2018-07-31T07:19:08.580Z,7.78
2018-07-31T07:21:37.164Z,11.15
2018-07-31T07:24:05.702Z,7.45
2018-07-31T07:26:34.200Z,6.22
2018-07-31T07:29:02.409Z,6.65
2018-07-31T07:31:30.940Z,6.28
2018-07-31T07:33:59.521Z,8.13
2018-07-31T07:36:28.041Z,6.22
2018-07-31T07:38:56.957Z,9.03
2018-07-31T07:41:25.474Z,7.05
2018-07-31T07:43:54.116Z,10.15
2018-07-31T07:46:22.779Z,12.33
2018-07-31T07:48:51.327Z,13.62
2018-07-31T07:51:19.899Z,9.53
2018-07-31T07:53:48.406Z,8.10
2018-07-31T07:56:16.979Z,5.12
2018-07-31T07:58:45.531Z,3.58
2018-07-31T08:01:14.071Z,4.20
2018-07-31T08:03:42.613Z,6.80
2018-07-31T08:06:11.142Z,5.22
2018-07-31T08:08:39.751Z,3.65
2018-07-31T08:11:08.271Z,5.15
2018-07-31T08:13:36.909Z,3.40
2018-07-31T08:16:05.506Z,5.10
2018-07-31T08:18:34.220Z,6.70
2018-07-31T08:21:02.762Z,4.70
2018-07-31T08:23:31.209Z,4.10
2018-07-31T08:25:59.779Z,4.80
2018-07-31T08:28:28.287Z,4.20
2018-07-31T08:30:56.749Z,6.55
2018-07-31T08:33:25.303Z,4.50
2018-07-31T08:35:53.874Z,4.47
2018-07-31T08:38:22.330Z,7.78
2018-07-31T08:40:50.796Z,3.15
2018-07-31T08:43:19.580Z,5.53
2018-07-31T08:45:48.009Z,4.67
2018-07-31T08:48:16.493Z,4.33
2018-07-31T08:50:45.007Z,7.30
2018-07-31T08:53:14.205Z,2.95
2018-07-31T08:55:42.693Z,9.75
2018-07-31T08:58:11.250Z,6.12
2018-07-31T09:00:39.446Z,3.87
2018-07-31T09:03:07.978Z,4.22
2018-07-31T09:05:36.456Z,5.45
2018-07-31T09:08:05.004Z,3.85
2018-07-31T09:10:33.559Z,3.80
2018-07-31T09:13:02.034Z,3.35
2018-07-31T09:15:30.612Z,4.90
2018-07-31T09:17:59.186Z,3.85
2018-07-31T09:20:27.658Z,4.67
2018-07-31T09:22:56.153Z,6.97
2018-07-31T09:25:24.688Z,7.37
2018-07-31T09:27:53.204Z,4.58
2018-07-31T09:30:21.743Z,5.33
2018-07-31T09:32:55.483Z,4.00
2018-07-31T09:35:24.031Z,4.33
2018-07-31T09:37:52.599Z,3.42
2018-07-31T09:40:21.056Z,2.30
2018-07-31T09:42:49.542Z,3.17
2018-07-31T09:45:18.109Z,2.33
2018-07-31T09:47:46.608Z,4.08
2018-07-31T09:50:15.118Z,2.00
2018-07-31T09:52:43.651Z,5.67
2018-07-31T09:55:12.160Z,4.75
2018-07-31T09:57:40.631Z,2.52
2018-07-31T10:00:09.315Z,3.42
2018-07-31T10:02:37.944Z,2.55
2018-07-31T10:05:06.456Z,2.15
2018-07-31T10:07:34.987Z,2.80
2018-07-31T10:10:03.544Z,3.22
2018-07-31T10:12:32.040Z,4.40
2018-07-31T10:15:00.495Z,2.83
2018-07-31T10:17:28.983Z,2.65
2018-07-31T10:19:57.470Z,4.55
2018-07-31T10:22:26.016Z,3.30
2018-07-31T10:24:55.664Z,3.55
2018-07-31T10:27:24.262Z,2.33
2018-07-31T10:29:53.800Z,3.27
2018-07-31T10:32:22.761Z,4.00
2018-07-31T10:34:51.411Z,5.75
2018-07-31T10:37:19.899Z,2.65
2018-07-31T10:39:50.355Z,3.52
2018-07-31T10:42:18.838Z,3.17
2018-07-31T10:44:47.344Z,4.95
2018-07-31T10:47:15.762Z,3.45
2018-07-31T10:49:44.284Z,5.20
2018-07-31T10:52:12.801Z,5.05
2018-07-31T10:54:41.312Z,3.33
2018-07-31T10:57:10.708Z,2.85
2018-07-31T10:59:39.240Z,6.85
2018-07-31T11:02:07.706Z,2.52
2018-07-31T11:04:36.185Z,5.25
2018-07-31T11:07:04.733Z,3.60
2018-07-31T11:09:33.202Z,5.28
2018-07-31T11:12:01.735Z,6.55
2018-07-31T11:14:30.183Z,3.30
2018-07-31T11:16:58.660Z,3.77
2018-07-31T11:19:27.454Z,4.87
2018-07-31T11:21:56.098Z,6.08
2018-07-31T11:24:24.234Z,5.00
2018-07-31T11:26:52.688Z,6.55
2018-07-31T11:29:21.162Z,3.47
2018-07-31T11:31:49.663Z,3.85
2018-07-31T11:34:18.144Z,5.25
2018-07-31T11:36:46.585Z,3.58
2018-07-31T11:39:15.061Z,6.70
2018-07-31T11:41:43.561Z,3.40
2018-07-31T11:44:11.995Z,3.70
2018-07-31T11:46:40.458Z,5.97
2018-07-31T11:49:08.956Z,4.17
2018-07-31T11:51:37.436Z,4.65
2018-07-31T11:54:05.860Z,3.87
2018-07-31T11:56:34.348Z,3.72
2018-07-31T11:59:02.802Z,4.50
2018-07-31T12:01:31.194Z,4.10
2018-07-31T12:04:00.116Z,2.83
2018-07-31T12:06:28.597Z,4.00
2018-07-31T12:08:57.115Z,3.15
2018-07-31T12:11:25.303Z,5.87
2018-07-31T12:13:53.872Z,3.98
2018-07-31T12:16:22.319Z,4.50
2018-07-31T12:18:51.136Z,2.30
2018-07-31T12:21:19.561Z,3.65
2018-07-31T12:23:48.070Z,4.97
2018-07-31T12:26:16.532Z,4.83
2018-07-31T12:28:45.012Z,2.90
2018-07-31T12:31:13.474Z,3.02
2018-07-31T12:33:41.923Z,3.50
2018-07-31T12:36:10.373Z,2.60
2018-07-31T12:38:38.928Z,2.77
2018-07-31T12:41:07.364Z,2.58
2018-07-31T12:43:35.458Z,2.42
2018-07-31T12:46:03.987Z,4.53
2018-07-31T12:48:32.531Z,3.30
2018-07-31T12:51:00.957Z,4.97
2018-07-31T12:53:29.437Z,4.15
2018-07-31T12:59:00.869Z,4.37
2018-07-31T13:01:29.283Z,4.42
2018-07-31T13:03:57.922Z,2.62
2018-07-31T13:06:26.389Z,4.12
2018-07-31T13:08:54.870Z,3.85
2018-07-31T13:11:23.340Z,3.37
2018-07-31T13:13:51.776Z,3.05
2018-07-31T13:16:20.228Z,4.95
2018-07-31T13:18:48.704Z,3.15
2018-07-31T13:21:17.176Z,4.40
2018-07-31T13:23:45.604Z,2.90
2018-07-31T13:26:14.017Z,2.60
2018-07-31T13:28:42.446Z,6.62
2018-07-31T13:31:10.909Z,4.30
2018-07-31T13:33:39.360Z,3.45
2018-07-31T13:36:07.878Z,5.05
2018-07-31T13:38:36.386Z,4.60
2018-07-31T13:41:04.922Z,2.17
2018-07-31T13:43:33.449Z,3.37
2018-07-31T13:46:01.864Z,2.35
2018-07-31T13:48:30.282Z,5.50
2018-07-31T13:50:58.762Z,4.00
2018-07-31T13:53:27.300Z,3.65
2018-07-31T13:55:55.866Z,2.30
2018-07-31T13:58:24.542Z,3.65
2018-07-31T14:00:53.028Z,6.90
2018-07-31T14:03:21.594Z,3.05
2018-07-31T14:05:50.410Z,4.45
2018-07-31T14:08:18.851Z,3.87
2018-07-31T14:10:47.308Z,6.72
2018-07-31T14:13:15.801Z,3.58
2018-07-31T14:15:44.246Z,2.05
2018-07-31T14:18:12.783Z,2.67
2018-07-31T14:20:41.299Z,3.22
2018-07-31T14:23:09.744Z,2.10
2018-07-31T14:25:38.136Z,4.08
2018-07-31T14:28:06.688Z,3.00
2018-07-31T14:30:35.261Z,4.10
2018-07-31T14:33:04.804Z,3.10
2018-07-31T14:35:33.227Z,4.12
2018-07-31T14:38:01.726Z,5.05
2018-07-31T14:40:30.202Z,5.33
2018-07-31T14:42:58.771Z,3.75
2018-07-31T14:45:27.154Z,2.35
2018-07-31T14:47:55.622Z,4.12
2018-07-31T14:50:24.152Z,3.50
2018-07-31T14:52:53.764Z,3.02
2018-07-31T14:55:23.206Z,4.33
2018-07-31T14:57:52.254Z,2.95
2018-07-31T15:00:23.895Z,2.70
2018-07-31T15:02:53.381Z,3.45
2018-07-31T15:11:45.867Z,4.40
2018-07-31T15:17:42.119Z,4.92
2018-07-31T15:20:30.779Z,3.05
2018-07-31T15:23:11.789Z,3.77
2018-07-31T15:25:42.178Z,4.85
2018-07-31T16:10:55.702Z,3.37
2018-07-31T16:13:24.148Z,4.15
2018-07-31T16:15:52.690Z,3.25
2018-07-31T16:18:21.154Z,2.52
2018-07-31T16:20:49.632Z,3.17
2018-07-31T16:23:18.099Z,2.52
2018-07-31T16:25:46.614Z,1.82
2018-07-31T16:28:15.103Z,2.87
2018-07-31T16:30:43.656Z,2.60
2018-07-31T16:33:12.126Z,2.60
2018-07-31T16:35:40.630Z,4.03
2018-07-31T16:38:09.161Z,3.17
2018-07-31T16:40:37.684Z,5.58
2018-07-31T16:43:06.243Z,4.10
2018-07-31T16:45:34.746Z,2.15
2018-07-31T16:48:03.242Z,2.77
2018-07-31T16:50:31.766Z,2.55
2018-07-31T16:53:00.252Z,1.70
2018-07-31T16:55:28.688Z,3.80
2018-07-31T16:57:57.196Z,1.92
2018-07-31T17:00:25.647Z,4.65
2018-07-31T17:02:54.074Z,1.85
2018-07-31T17:05:22.583Z,1.67
2018-07-31T17:07:51.868Z,2.85
2018-07-31T17:10:20.270Z,2.45
2018-07-31T17:12:48.724Z,1.92
2018-07-31T17:15:17.263Z,3.58
2018-07-31T17:17:45.785Z,3.30
2018-07-31T17:20:14.703Z,1.80
2018-07-31T17:22:43.213Z,2.75
2018-07-31T17:25:11.685Z,2.80
2018-07-31T17:27:40.178Z,2.10
2018-07-31T17:30:08.712Z,2.60
2018-07-31T17:32:37.247Z,4.10
2018-07-31T17:35:05.718Z,2.40
2018-07-31T17:37:34.179Z,2.95
2018-07-31T17:40:02.671Z,5.22
2018-07-31T17:42:31.223Z,1.90
2018-07-31T17:45:00.026Z,3.55
2018-07-31T17:47:28.593Z,2.47
2018-07-31T17:49:57.095Z,3.47
2018-07-31T17:52:25.643Z,3.02
2018-07-31T17:54:55.250Z,4.55
2018-07-31T17:57:23.882Z,2.98
2018-07-31T17:59:52.436Z,2.52
2018-07-31T18:02:20.961Z,3.22
2018-07-31T18:04:49.504Z,5.22
2018-07-31T18:07:18.092Z,4.33
2018-07-31T18:09:46.608Z,5.25
2018-07-31T18:12:15.143Z,2.85
2018-07-31T18:14:43.766Z,4.03
2018-07-31T18:17:12.206Z,4.00
2018-07-31T18:19:40.816Z,3.92
2018-07-31T18:22:09.383Z,2.72
2018-07-31T18:24:37.896Z,5.30
2018-07-31T18:27:06.522Z,3.62
2018-07-31T18:29:35.044Z,6.72
2018-07-31T18:32:03.990Z,5.17
2018-07-31T18:34:32.709Z,3.00
2018-07-31T18:37:01.291Z,3.62
2018-07-31T18:39:29.870Z,7.55
2018-07-31T18:41:58.318Z,2.85
2018-07-31T18:44:26.744Z,2.80
2018-07-31T18:46:55.325Z,2.40
2018-07-31T18:49:23.740Z,4.97
2018-07-31T18:51:52.342Z,5.15
2018-07-31T18:54:20.850Z,5.28
2018-07-31T18:56:49.275Z,8.33
2018-07-31T18:59:17.878Z,6.50
2018-07-31T19:01:46.402Z,4.20
2018-07-31T19:04:15.086Z,5.35
2018-07-31T19:06:43.586Z,5.30
2018-07-31T19:09:12.610Z,5.20
2018-07-31T19:11:42.313Z,7.58
2018-07-31T19:14:10.901Z,12.30
2018-07-31T19:16:39.557Z,11.83
2018-07-31T19:19:07.962Z,7.22
2018-07-31T19:21:37.361Z,6.83
2018-07-31T19:24:05.834Z,6.28
2018-07-31T19:26:34.310Z,4.62
2018-07-31T19:29:02.835Z,4.03
2018-07-31T19:31:31.370Z,3.60
2018-07-31T19:33:59.847Z,5.35
2018-07-31T19:36:28.339Z,3.98
2018-07-31T19:38:57.146Z,4.20
2018-07-31T19:41:25.597Z,4.40
2018-07-31T19:43:54.143Z,16.42
2018-07-31T19:46:22.863Z,21.75
2018-07-31T19:48:51.369Z,17.98
2018-07-31T19:51:19.852Z,27.50
2018-07-31T19:53:48.308Z,27.17
2018-07-31T19:56:16.991Z,17.23
2018-07-31T19:58:45.782Z,8.78
2018-07-31T20:01:14.375Z,6.35
2018-07-31T20:03:43.159Z,8.33
2018-07-31T20:06:11.626Z,20.65
2018-07-31T20:08:40.101Z,27.73
2018-07-31T20:11:08.781Z,48.10
2018-07-31T20:13:37.300Z,32.13
2018-07-31T20:16:06.385Z,23.07
2018-07-31T20:18:35.376Z,23.30
2018-07-31T20:21:04.064Z,22.67
2018-07-31T20:23:32.610Z,16.90
2018-07-31T20:26:01.141Z,28.83
2018-07-31T20:28:29.704Z,15.70
2018-07-31T20:30:58.176Z,9.60
2018-07-31T20:33:26.640Z,8.80
2018-07-31T20:35:55.154Z,6.20
2018-07-31T20:38:23.812Z,7.10
2018-07-31T20:40:52.421Z,6.00
2018-07-31T20:43:21.146Z,6.92
2018-07-31T20:45:49.939Z,5.70
2018-07-31T20:48:18.537Z,5.55
2018-07-31T20:50:47.135Z,4.35
2018-07-31T20:53:15.598Z,4.65
2018-07-31T20:55:44.039Z,4.40
2018-07-31T20:58:12.522Z,4.95
2018-07-31T21:00:41.795Z,4.40
2018-07-31T21:03:10.446Z,5.58
2018-07-31T21:05:38.934Z,8.70
2018-07-31T21:08:07.694Z,6.83
2018-07-31T21:10:36.195Z,7.85
2018-07-31T21:13:04.685Z,4.35
2018-07-31T21:15:33.222Z,3.20
2018-07-31T21:18:01.874Z,4.28
2018-07-31T21:20:30.258Z,3.60
2018-07-31T21:22:58.733Z,3.55
2018-07-31T21:25:27.189Z,4.35
2018-07-31T21:27:55.665Z,3.55
2018-07-31T21:30:24.147Z,4.35
2018-07-31T21:32:52.574Z,4.55
2018-07-31T21:35:21.080Z,5.83
2018-07-31T21:37:49.573Z,5.47
2018-07-31T21:40:18.061Z,4.00
2018-07-31T21:42:46.588Z,3.00
2018-07-31T21:45:15.104Z,3.37
2018-07-31T21:47:43.650Z,2.92
2018-07-31T21:50:12.143Z,2.17
2018-07-31T21:52:40.604Z,2.70
2018-07-31T21:55:09.096Z,3.75
2018-07-31T21:57:37.591Z,2.95
2018-07-31T22:00:08.488Z,3.62
2018-07-31T22:02:36.981Z,3.42
2018-07-31T22:05:05.424Z,3.60
2018-07-31T22:07:33.886Z,2.33
2018-07-31T22:10:02.381Z,5.17
2018-07-31T22:12:30.823Z,2.60
2018-07-31T22:14:59.245Z,3.35
2018-07-31T22:17:27.730Z,4.50
2018-07-31T22:19:56.119Z,3.72
2018-07-31T22:22:24.726Z,3.85
2018-07-31T22:24:53.254Z,4.15
2018-07-31T22:27:21.661Z,5.92
2018-07-31T22:29:50.099Z,7.35
2018-07-31T22:32:18.560Z,6.55
2018-07-31T22:34:47.092Z,4.17
2018-07-31T22:37:15.592Z,6.08
2018-07-31T22:39:44.066Z,3.72
2018-07-31T22:42:12.505Z,2.40
2018-07-31T22:44:41.161Z,3.27
2018-07-31T22:47:09.608Z,2.40
2018-07-31T22:49:37.989Z,5.17
2018-07-31T22:52:06.704Z,8.95
2018-07-31T22:54:35.117Z,6.25
2018-07-31T22:57:03.639Z,7.00
2018-07-31T22:59:32.037Z,6.40
2018-07-31T23:02:00.483Z,3.40
2018-07-31T23:04:28.877Z,4.70
2018-07-31T23:06:57.284Z,9.13
2018-07-31T23:09:25.735Z,7.47
2018-07-31T23:11:54.185Z,4.33
2018-07-31T23:14:22.591Z,7.05
2018-07-31T23:16:51.723Z,9.28
2018-07-31T23:19:20.160Z,9.58
2018-07-31T23:21:48.644Z,6.62
2018-07-31T23:24:17.135Z,12.65
2018-07-31T23:26:45.584Z,5.40
2018-07-31T23:29:14.091Z,7.62
2018-07-31T23:31:42.531Z,4.12
2018-07-31T23:34:11.091Z,2.58
2018-07-31T23:36:39.471Z,3.02
2018-07-31T23:39:09.297Z,3.72
2018-07-31T23:41:38.155Z,3.25
2018-07-31T23:44:06.775Z,6.50
2018-07-31T23:46:35.251Z,3.27
2018-07-31T23:49:03.779Z,4.42
2018-07-31T23:51:32.168Z,2.58
2018-07-31T23:54:00.812Z,2.55
2018-07-31T23:56:29.227Z,2.47
2018-07-31T23:58:57.633Z,4.40
